Time;durP1;ratioP1;P1;durP2;ratioP2;P2;SDS_P1;SDS_P2;PMS_P1;PMS_P2;Temp;Humidity;BMP_temperature;BMP_pressure;BME280_temperature;BME280_humidity;BME280_pressure;Samples;Min_cycle;Max_cycle;Signal;HPM_P1;HPM_P2
2023/07/30 00:00:30;;;;;;;1.73;1.60;;;19.10;99.90;;;;;;4995151;28;20199;-65
2023/07/30 00:02:56;;;;;;;2.25;1.63;;;19.00;99.90;;;;;;4994225;28;20229;-65
2023/07/30 00:05:21;;;;;;;2.20;1.70;;;19.00;99.90;;;;;;4994765;28;20175;-65
2023/07/30 00:07:47;;;;;;;2.72;1.75;;;19.00;99.90;;;;;;4994925;28;20217;-65
2023/07/30 00:10:13;;;;;;;2.40;1.70;;;19.00;99.90;;;;;;4999822;28;20246;-65
2023/07/30 00:12:40;;;;;;;1.67;1.50;;;19.00;99.90;;;;;;4997944;28;20182;-65
2023/07/30 00:15:06;;;;;;;1.67;1.55;;;18.90;99.90;;;;;;4981430;28;20180;-65
2023/07/30 00:17:32;;;;;;;2.70;1.90;;;18.90;99.90;;;;;;4982109;28;20179;-65
2023/07/30 00:20:00;;;;;;;2.40;1.73;;;18.90;99.90;;;;;;4992050;28;20298;-65
2023/07/30 00:22:28;;;;;;;3.05;1.70;;;18.80;99.90;;;;;;5001407;28;20209;-65
2023/07/30 00:24:56;;;;;;;4.32;1.77;;;18.80;99.90;;;;;;5001384;28;20210;-65
2023/07/30 00:27:21;;;;;;;3.35;1.63;;;18.70;99.90;;;;;;5001490;28;20202;-66
2023/07/30 00:29:47;;;;;;;2.63;1.67;;;18.70;99.90;;;;;;5001334;28;20333;-65
2023/07/30 00:32:16;;;;;;;1.75;1.50;;;18.70;99.90;;;;;;5001355;28;20318;-63
2023/07/30 00:34:42;;;;;;;1.77;1.40;;;18.60;99.90;;;;;;5000473;28;20281;-65
2023/07/30 00:37:08;;;;;;;1.70;1.60;;;18.60;99.90;;;;;;5001169;28;20229;-64
2023/07/30 00:39:36;;;;;;;2.63;1.70;;;18.60;99.90;;;;;;5001215;28;20187;-65
2023/07/30 00:42:03;;;;;;;2.97;1.80;;;18.60;99.90;;;;;;5001110;28;20175;-65
2023/07/30 00:44:29;;;;;;;1.70;1.30;;;18.60;99.90;;;;;;5002268;28;20182;-65
2023/07/30 00:46:55;;;;;;;1.70;1.50;;;18.60;99.90;;;;;;5001468;28;20214;-65
2023/07/30 00:49:22;;;;;;;2.08;1.60;;;18.60;99.90;;;;;;4997193;28;20413;-65
2023/07/30 00:51:53;;;;;;;1.70;1.50;;;18.60;99.90;;;;;;5001155;28;20203;-65
2023/07/30 00:54:21;;;;;;;2.85;1.60;;;18.50;99.90;;;;;;5001181;28;20518;-65
2023/07/30 00:56:52;;;;;;;1.77;1.40;;;18.50;99.90;;;;;;5000808;28;20281;-65
2023/07/30 00:59:18;;;;;;;1.90;1.70;;;18.50;99.90;;;;;;5001046;28;20233;-65
2023/07/30 01:01:47;;;;;;;2.05;1.70;;;18.50;99.90;;;;;;5001173;28;20206;-65
2023/07/30 01:04:15;;;;;;;4.15;1.35;;;18.50;99.90;;;;;;5000491;28;20179;-65
2023/07/30 01:06:44;;;;;;;1.63;1.48;;;18.50;99.90;;;;;;5001583;28;20234;-66
2023/07/30 01:09:12;;;;;;;2.20;1.63;;;18.50;99.90;;;;;;5001476;28;20182;-65
2023/07/30 01:11:39;;;;;;;1.70;1.50;;;18.50;99.90;;;;;;5001288;28;20205;-65
2023/07/30 01:14:06;;;;;;;3.78;1.80;;;18.50;99.90;;;;;;5001003;28;20210;-65
2023/07/30 01:16:34;;;;;;;1.65;1.50;;;18.40;99.90;;;;;;5001458;28;20222;-70
2023/07/30 01:19:03;;;;;;;2.58;1.42;;;18.40;99.90;;;;;;5000617;28;20171;-70
2023/07/30 01:21:33;;;;;;;1.85;1.70;;;18.40;99.90;;;;;;4997862;28;20230;-70
2023/07/30 01:24:04;;;;;;;1.85;1.65;;;18.30;99.90;;;;;;4997766;28;20183;-70
2023/07/30 01:26:42;;;;;;;1.85;1.52;;;18.30;99.90;;;;;;4997740;28;20171;-69
2023/07/30 01:29:17;;;;;;;2.05;1.60;;;18.30;99.90;;;;;;4997727;28;20175;-69
2023/07/30 01:31:46;;;;;;;1.77;1.60;;;18.30;99.90;;;;;;4997495;28;20170;-70
2023/07/30 01:34:17;;;;;;;3.30;1.90;;;18.30;99.90;;;;;;4997351;28;20198;-69
2023/07/30 01:36:43;;;;;;;4.10;1.80;;;18.30;99.90;;;;;;4983208;28;20310;-70
2023/07/30 01:39:12;;;;;;;1.98;1.65;;;18.30;99.90;;;;;;4978075;28;20277;-68
2023/07/30 01:41:40;;;;;;;2.15;1.48;;;18.30;99.90;;;;;;4977989;28;20180;-69
2023/07/30 01:44:08;;;;;;;3.35;1.70;;;18.30;99.90;;;;;;5015512;28;20175;-69
2023/07/30 01:46:33;;;;;;;2.22;1.98;;;18.30;99.90;;;;;;5016849;28;20191;-69
2023/07/30 01:48:59;;;;;;;4.80;2.00;;;18.40;99.90;;;;;;5016862;28;20256;-69
2023/07/30 01:51:25;;;;;;;1.88;1.60;;;18.40;99.90;;;;;;5007008;28;20175;-69
2023/07/30 01:53:50;;;;;;;2.05;1.77;;;18.40;99.90;;;;;;4993418;28;20204;-68
2023/07/30 01:56:16;;;;;;;2.45;1.52;;;18.50;99.90;;;;;;4993835;28;20172;-69
2023/07/30 01:58:42;;;;;;;2.75;2.00;;;18.40;99.90;;;;;;4993775;28;20204;-69
2023/07/30 02:01:07;;;;;;;5.40;3.70;;;18.50;99.90;;;;;;4993696;28;20279;-68
2023/07/30 02:03:33;;;;;;;3.13;2.40;;;18.50;99.90;;;;;;4993644;28;20288;-69
2023/07/30 02:06:01;;;;;;;2.30;2.10;;;18.50;99.90;;;;;;4993267;28;20195;-69
2023/07/30 02:08:28;;;;;;;2.92;2.30;;;18.50;99.90;;;;;;4996492;28;20199;-69
2023/07/30 02:10:58;;;;;;;2.47;2.00;;;18.60;99.90;;;;;;4997115;28;20176;-69
2023/07/30 02:13:25;;;;;;;2.65;1.45;;;18.60;99.90;;;;;;4996942;28;20272;-69
2023/07/30 02:15:53;;;;;;;2.20;1.67;;;18.60;99.90;;;;;;4996931;28;20178;-70
2023/07/30 02:18:19;;;;;;;2.10;1.80;;;18.60;99.90;;;;;;4996573;28;20171;-70
2023/07/30 02:20:45;;;;;;;2.00;1.60;;;18.60;99.90;;;;;;4996388;28;20246;-68
2023/07/30 02:23:17;;;;;;;3.08;1.70;;;18.70;99.90;;;;;;4996811;28;20202;-69
2023/07/30 02:25:43;;;;;;;3.40;1.63;;;18.70;99.90;;;;;;4992864;28;20200;-68
2023/07/30 02:28:09;;;;;;;2.90;1.50;;;18.70;99.90;;;;;;4996561;28;20269;-69
2023/07/30 02:30:35;;;;;;;2.17;1.60;;;18.70;99.90;;;;;;4996653;28;20199;-70
2023/07/30 02:33:01;;;;;;;1.80;1.33;;;18.70;99.90;;;;;;4995731;28;20175;-70
2023/07/30 02:35:26;;;;;;;2.45;1.60;;;18.80;99.90;;;;;;4991992;28;20298;-69
2023/07/30 02:37:52;;;;;;;2.53;1.52;;;18.80;99.90;;;;;;4993435;28;20527;-70
2023/07/30 02:40:18;;;;;;;3.28;2.22;;;18.80;99.90;;;;;;4992801;28;20231;-70
2023/07/30 02:42:43;;;;;;;2.53;1.98;;;18.80;99.90;;;;;;4995209;28;20179;-71
2023/07/30 02:45:12;;;;;;;2.00;1.50;;;18.80;99.90;;;;;;4996191;28;20234;-70
2023/07/30 02:47:38;;;;;;;4.15;2.00;;;18.80;99.90;;;;;;4995922;28;20195;-70
2023/07/30 02:50:06;;;;;;;3.97;2.80;;;18.90;99.90;;;;;;4996099;28;20243;-70
2023/07/30 02:52:32;;;;;;;4.28;2.20;;;18.90;99.90;;;;;;4995757;28;20230;-69
2023/07/30 02:54:57;;;;;;;1.77;1.60;;;18.90;99.90;;;;;;4995973;28;20262;-70
2023/07/30 02:57:23;;;;;;;3.17;1.73;;;18.90;99.90;;;;;;4995699;28;20223;-68
2023/07/30 02:59:53;;;;;;;2.03;1.70;;;18.90;99.90;;;;;;4995651;28;20175;-70
2023/07/30 03:02:19;;;;;;;2.03;1.40;;;18.90;99.90;;;;;;4995793;28;20199;-70
2023/07/30 03:04:47;;;;;;;1.83;1.40;;;18.90;99.90;;;;;;4995788;28;20191;-69
2023/07/30 03:07:12;;;;;;;1.67;1.58;;;18.90;99.90;;;;;;4995766;28;20219;-71
2023/07/30 03:09:38;;;;;;;5.32;1.90;;;18.90;99.90;;;;;;4995619;28;20179;-70
2023/07/30 03:12:04;;;;;;;2.45;1.67;;;18.90;99.90;;;;;;4995580;28;20261;-69
2023/07/30 03:14:29;;;;;;;2.15;1.67;;;18.90;99.90;;;;;;4995815;28;20238;-70
2023/07/30 03:17:00;;;;;;;2.20;1.75;;;18.90;99.90;;;;;;4994914;28;20203;-69
2023/07/30 03:19:25;;;;;;;3.00;1.95;;;18.90;99.90;;;;;;4995615;28;20336;-70
2023/07/30 03:21:51;;;;;;;2.60;1.42;;;18.90;99.90;;;;;;4995817;28;20286;-70
2023/07/30 03:24:19;;;;;;;1.90;1.70;;;18.90;99.90;;;;;;4995290;28;20179;-71
2023/07/30 03:26:44;;;;;;;1.92;1.52;;;18.90;99.90;;;;;;4995464;28;20180;-70
2023/07/30 03:29:10;;;;;;;2.13;1.60;;;18.90;99.90;;;;;;4995485;28;20181;-70
2023/07/30 03:31:35;;;;;;;1.77;1.40;;;18.90;99.90;;;;;;4995317;28;20233;-69
2023/07/30 03:34:01;;;;;;;2.78;1.58;;;18.90;99.90;;;;;;4991850;28;20187;-70
2023/07/30 03:36:29;;;;;;;3.42;1.80;;;18.90;99.90;;;;;;4995505;28;20270;-70
2023/07/30 03:38:55;;;;;;;1.77;1.42;;;18.90;99.90;;;;;;4995221;28;20201;-70
2023/07/30 03:41:20;;;;;;;3.83;1.52;;;18.90;99.90;;;;;;4995475;28;20210;-70
2023/07/30 03:43:48;;;;;;;2.53;1.70;;;18.90;99.90;;;;;;4994660;28;20207;-70
2023/07/30 03:46:14;;;;;;;2.67;1.70;;;18.90;99.90;;;;;;4995306;28;20171;-70
2023/07/30 03:48:40;;;;;;;2.17;1.55;;;18.90;99.90;;;;;;4995084;28;20217;-69
2023/07/30 03:51:07;;;;;;;2.28;1.50;;;18.90;99.90;;;;;;4994608;28;20186;-69
2023/07/30 03:53:32;;;;;;;2.00;1.58;;;18.90;99.90;;;;;;4994747;28;20210;-70
2023/07/30 03:56:01;;;;;;;3.30;1.67;;;18.90;99.90;;;;;;4995001;28;20171;-70
2023/07/30 03:58:31;;;;;;;1.75;1.50;;;18.80;99.90;;;;;;4995027;28;20193;-70
2023/07/30 04:00:59;;;;;;;1.70;1.42;;;18.80;99.90;;;;;;4995256;28;20190;-68
2023/07/30 04:03:25;;;;;;;2.90;1.60;;;18.80;99.90;;;;;;4994894;28;20207;-69
2023/07/30 04:05:50;;;;;;;3.13;1.77;;;18.80;99.90;;;;;;4995011;28;20210;-70
2023/07/30 04:08:16;;;;;;;1.70;1.58;;;18.80;99.90;;;;;;4994317;28;20203;-70
2023/07/30 04:10:44;;;;;;;3.20;1.60;;;18.70;99.90;;;;;;4995027;28;20195;-70
2023/07/30 04:13:12;;;;;;;1.85;1.50;;;18.70;99.90;;;;;;4994892;28;20194;-69
2023/07/30 04:15:40;;;;;;;4.35;1.50;;;18.60;99.90;;;;;;4994774;28;20243;-70
2023/07/30 04:18:07;;;;;;;2.63;1.40;;;18.60;99.90;;;;;;4994540;28;20179;-70
2023/07/30 04:20:33;;;;;;;2.33;1.50;;;18.60;99.90;;;;;;4994904;28;20203;-69
2023/07/30 04:22:59;;;;;;;2.25;1.40;;;18.50;99.90;;;;;;4994553;28;20179;-70
2023/07/30 04:25:24;;;;;;;2.17;1.80;;;18.50;99.90;;;;;;4994706;28;20195;-70
2023/07/30 04:27:52;;;;;;;2.65;1.60;;;18.50;99.90;;;;;;4994842;28;20293;-71
2023/07/30 04:30:18;;;;;;;1.70;1.60;;;18.50;99.90;;;;;;4994742;28;20222;-71
2023/07/30 04:32:46;;;;;;;3.92;1.40;;;18.50;99.90;;;;;;4994443;28;20175;-71
2023/07/30 04:35:11;;;;;;;2.00;1.52;;;18.40;99.90;;;;;;4994524;28;20219;-70
2023/07/30 04:37:39;;;;;;;3.03;1.60;;;18.40;99.90;;;;;;4994522;28;20179;-71
2023/07/30 04:40:05;;;;;;;1.73;1.50;;;18.40;99.90;;;;;;4994114;28;20211;-71
2023/07/30 04:42:33;;;;;;;3.03;1.70;;;18.40;99.90;;;;;;4994765;28;20175;-71
2023/07/30 04:45:01;;;;;;;1.65;1.55;;;18.50;99.90;;;;;;4994582;28;20175;-71
2023/07/30 04:47:27;;;;;;;3.25;1.63;;;18.50;99.90;;;;;;4994526;28;20202;-70
2023/07/30 04:49:52;;;;;;;1.60;1.50;;;18.50;99.90;;;;;;4994622;28;20191;-69
2023/07/30 04:52:18;;;;;;;2.00;1.45;;;18.50;99.90;;;;;;4994461;28;20196;-71
2023/07/30 04:54:44;;;;;;;2.25;1.50;;;18.60;99.90;;;;;;4994412;28;20176;-70
2023/07/30 04:57:12;;;;;;;1.77;1.58;;;18.60;99.90;;;;;;4996960;28;20342;-71
2023/07/30 04:59:40;;;;;;;2.33;1.60;;;18.60;99.90;;;;;;4998172;28;20206;-71
2023/07/30 05:02:10;;;;;;;3.40;1.20;;;18.60;99.90;;;;;;4997781;28;20199;-70
2023/07/30 05:04:35;;;;;;;2.35;1.67;;;18.60;99.90;;;;;;4998301;28;20171;-71
2023/07/30 05:07:01;;;;;;;2.42;1.35;;;18.60;99.90;;;;;;4997955;28;20222;-71
2023/07/30 05:09:27;;;;;;;2.20;1.50;;;18.70;99.90;;;;;;4998032;28;20183;-69
2023/07/30 05:11:54;;;;;;;2.15;1.40;;;18.70;99.90;;;;;;4998117;28;20199;-72
2023/07/30 05:14:20;;;;;;;1.80;1.30;;;18.70;99.90;;;;;;4997542;28;20164;-72
2023/07/30 05:16:48;;;;;;;3.25;1.60;;;18.70;99.90;;;;;;4997596;28;20182;-72
2023/07/30 05:19:14;;;;;;;2.30;1.55;;;18.70;99.90;;;;;;4997908;28;20198;-69
2023/07/30 05:21:40;;;;;;;1.98;1.40;;;18.70;99.90;;;;;;4997765;28;20211;-70
2023/07/30 05:24:07;;;;;;;5.70;1.40;;;18.70;99.90;;;;;;4997761;28;20182;-70
2023/07/30 05:26:35;;;;;;;2.10;1.33;;;18.80;99.90;;;;;;4997814;28;20175;-71
2023/07/30 05:29:00;;;;;;;2.85;1.38;;;18.80;99.90;;;;;;4997030;28;20191;-69
2023/07/30 05:31:26;;;;;;;4.25;1.38;;;18.80;99.90;;;;;;4997567;28;20221;-71
2023/07/30 05:33:52;;;;;;;2.80;1.65;;;18.90;99.90;;;;;;4997649;28;20215;-70
2023/07/30 05:36:20;;;;;;;1.83;1.35;;;18.90;99.90;;;;;;4997740;28;20179;-71
2023/07/30 05:38:45;;;;;;;2.90;1.63;;;18.90;99.90;;;;;;4997498;28;20202;-71
2023/07/30 05:41:16;;;;;;;4.05;1.45;;;18.90;99.90;;;;;;4997624;28;20237;-72
2023/07/30 05:43:43;;;;;;;3.75;1.70;;;18.90;99.90;;;;;;4992135;28;20207;-71
2023/07/30 05:46:09;;;;;;;1.95;1.33;;;18.90;99.90;;;;;;4977602;28;20184;-71
2023/07/30 05:48:35;;;;;;;2.42;1.50;;;18.90;99.90;;;;;;4977891;28;20212;-71
2023/07/30 05:51:02;;;;;;;3.35;1.90;;;18.90;99.90;;;;;;4977913;28;20198;-71
2023/07/30 05:53:28;;;;;;;2.33;1.48;;;18.90;99.90;;;;;;4977390;28;20176;-70
2023/07/30 05:55:54;;;;;;;2.70;1.40;;;18.90;99.90;;;;;;4977926;28;20179;-71
2023/07/30 05:58:21;;;;;;;2.05;1.33;;;18.90;99.90;;;;;;4977981;28;20176;-70
2023/07/30 06:00:47;;;;;;;19.35;14.75;;;18.90;99.90;;;;;;4987505;28;20191;-69
2023/07/30 06:03:13;;;;;;;8.13;5.50;;;19.00;99.90;;;;;;4997167;28;20190;-72
2023/07/30 06:05:42;;;;;;;6.03;3.85;;;19.00;99.90;;;;;;4997103;28;20330;-71
2023/07/30 06:08:13;;;;;;;6.07;2.80;;;19.10;99.90;;;;;;4996523;28;20199;-69
2023/07/30 06:10:40;;;;;;;4.22;2.10;;;19.10;99.90;;;;;;4997132;28;20199;-70
2023/07/30 06:13:06;;;;;;;3.80;1.80;;;19.10;99.90;;;;;;4997045;28;20182;-71
2023/07/30 06:15:33;;;;;;;5.30;1.90;;;19.10;99.90;;;;;;4997117;28;20209;-72
2023/07/30 06:18:03;;;;;;;3.28;1.33;;;19.20;99.90;;;;;;4996326;28;20241;-70
2023/07/30 06:20:29;;;;;;;3.05;1.40;;;19.20;99.90;;;;;;4996522;28;20207;-71
2023/07/30 06:22:55;;;;;;;3.38;1.50;;;19.10;99.90;;;;;;4996648;28;20230;-71
2023/07/30 06:25:20;;;;;;;2.75;1.63;;;19.10;99.90;;;;;;4996446;28;20199;-71
2023/07/30 06:27:46;;;;;;;5.10;1.50;;;19.10;99.90;;;;;;4996477;28;20246;-71
2023/07/30 06:30:16;;;;;;;4.10;1.85;;;19.10;99.90;;;;;;4996410;28;20257;-71
2023/07/30 06:32:44;;;;;;;3.78;1.45;;;19.00;99.90;;;;;;4996280;28;20175;-71
2023/07/30 06:35:12;;;;;;;2.80;1.40;;;19.00;99.90;;;;;;4995658;28;20171;-72
2023/07/30 06:37:40;;;;;;;2.58;1.73;;;19.00;99.90;;;;;;4996596;28;20179;-72
2023/07/30 06:40:09;;;;;;;4.05;1.95;;;19.00;99.90;;;;;;4996330;28;20175;-72
2023/07/30 06:42:34;;;;;;;2.05;1.42;;;18.90;99.90;;;;;;4996367;28;20179;-72
2023/07/30 06:45:00;;;;;;;2.83;1.48;;;18.90;99.90;;;;;;4996207;28;20175;-70
2023/07/30 06:47:28;;;;;;;3.58;1.55;;;18.90;99.90;;;;;;5043560;23;20197;-67
2023/07/30 06:49:53;;;;;;;2.33;1.60;;;18.90;99.90;;;;;;5008009;28;20376;-70
2023/07/30 06:52:20;;;;;;;3.58;1.40;;;18.90;99.90;;;;;;4976607;28;20405;-68
2023/07/30 06:54:48;;;;;;;4.57;1.63;;;18.90;99.90;;;;;;4976417;28;20187;-70
2023/07/30 06:57:16;;;;;;;3.20;1.48;;;18.80;99.90;;;;;;4976262;28;20203;-71
2023/07/30 06:59:41;;;;;;;3.90;1.45;;;18.70;99.90;;;;;;4976413;28;20176;-71
2023/07/30 07:02:07;;;;;;;4.80;2.33;;;18.70;99.90;;;;;;4976357;28;20266;-71
2023/07/30 07:04:33;;;;;;;3.10;2.00;;;18.60;99.90;;;;;;4987074;28;20266;-70
2023/07/30 07:06:58;;;;;;;4.68;1.92;;;18.60;99.90;;;;;;4995407;28;20246;-69
2023/07/30 07:09:26;;;;;;;3.55;1.60;;;18.50;99.90;;;;;;4996016;28;20179;-70
2023/07/30 07:11:52;;;;;;;4.55;1.98;;;18.40;99.90;;;;;;4995708;28;20182;-70
2023/07/30 07:14:20;;;;;;;3.47;1.70;;;18.40;99.90;;;;;;4976532;28;20176;-70
2023/07/30 07:16:48;;;;;;;2.90;1.70;;;18.30;99.90;;;;;;4976047;28;20183;-69
2023/07/30 07:19:14;;;;;;;2.83;1.80;;;18.30;99.90;;;;;;4975610;28;20172;-70
2023/07/30 07:21:40;;;;;;;1.92;1.30;;;18.20;99.90;;;;;;4975961;28;20191;-69
2023/07/30 07:24:06;;;;;;;3.30;1.90;;;18.20;99.90;;;;;;4975779;28;20172;-70
2023/07/30 07:26:31;;;;;;;2.25;1.48;;;18.20;99.90;;;;;;4976022;28;20179;-70
2023/07/30 07:28:59;;;;;;;3.55;1.40;;;18.20;99.90;;;;;;4975898;28;20215;-70
2023/07/30 07:31:25;;;;;;;2.95;1.50;;;18.10;99.90;;;;;;4976023;28;20187;-70
2023/07/30 07:33:51;;;;;;;2.88;1.52;;;18.20;99.90;;;;;;4975947;28;20196;-70
2023/07/30 07:36:16;;;;;;;2.92;1.55;;;18.20;99.90;;;;;;4975573;28;20183;-69
2023/07/30 07:38:42;;;;;;;2.45;1.65;;;18.20;99.90;;;;;;4975984;28;20195;-70
2023/07/30 07:41:16;;;;;;;3.85;1.70;;;18.30;99.90;;;;;;4975800;28;20279;-70
2023/07/30 07:43:43;;;;;;;4.43;1.77;;;18.30;99.90;;;;;;4975598;28;20257;-70
2023/07/30 07:46:16;;;;;;;3.78;1.88;;;18.30;99.90;;;;;;4975514;28;20176;-69
2023/07/30 07:48:47;;;;;;;2.20;1.63;;;18.40;99.90;;;;;;4975334;28;20243;-69
2023/07/30 07:51:13;;;;;;;3.08;1.45;;;18.40;99.90;;;;;;4975818;28;20242;-71
2023/07/30 07:53:39;;;;;;;3.20;1.70;;;18.50;99.90;;;;;;4976093;28;20184;-69
2023/07/30 07:56:07;;;;;;;3.72;1.70;;;18.50;99.90;;;;;;4975617;28;20212;-70
2023/07/30 07:58:37;;;;;;;2.60;1.58;;;18.50;99.90;;;;;;4975375;28;20180;-69
2023/07/30 08:01:03;;;;;;;3.83;1.55;;;18.60;99.90;;;;;;4975562;28;20183;-69
2023/07/30 08:03:29;;;;;;;2.60;1.60;;;18.60;99.90;;;;;;4975549;28;20195;-70
2023/07/30 08:05:54;;;;;;;3.38;1.55;;;18.60;99.90;;;;;;4975413;28;20183;-69
2023/07/30 08:08:20;;;;;;;2.72;1.30;;;18.70;99.90;;;;;;4975152;28;20227;-70
2023/07/30 08:10:48;;;;;;;2.97;1.70;;;18.70;99.90;;;;;;4974768;28;20282;-71
2023/07/30 08:13:14;;;;;;;5.07;1.95;;;18.80;99.90;;;;;;4975327;28;20260;-70
2023/07/30 08:15:39;;;;;;;3.40;1.70;;;18.90;99.90;;;;;;4975297;28;20212;-70
2023/07/30 08:18:08;;;;;;;2.78;1.60;;;18.90;99.90;;;;;;4975721;28;20187;-72
2023/07/30 08:20:33;;;;;;;2.22;1.50;;;19.00;99.90;;;;;;4975396;28;20203;-69
2023/07/30 08:22:59;;;;;;;3.53;1.60;;;19.00;99.90;;;;;;4975542;28;20172;-71
2023/07/30 08:25:24;;;;;;;3.55;1.88;;;19.00;99.90;;;;;;4975118;28;21027;-70
2023/07/30 08:27:53;;;;;;;8.35;1.70;;;19.10;99.90;;;;;;4975166;28;20250;-71
2023/07/30 08:30:21;;;;;;;3.42;1.77;;;19.10;99.90;;;;;;4976479;28;20207;-70
2023/07/30 08:32:47;;;;;;;2.22;1.30;;;19.20;99.90;;;;;;4978876;28;20176;-72
2023/07/30 08:35:12;;;;;;;3.75;1.70;;;19.20;99.90;;;;;;4979086;28;20168;-72
2023/07/30 08:37:38;;;;;;;3.13;1.40;;;19.30;99.90;;;;;;4978874;28;20191;-72
2023/07/30 08:40:04;;;;;;;2.67;1.52;;;19.40;99.90;;;;;;4978962;28;20182;-72
2023/07/30 08:42:33;;;;;;;4.63;1.50;;;19.50;99.90;;;;;;4978688;28;20203;-72
2023/07/30 08:44:59;;;;;;;3.45;1.60;;;19.70;99.90;;;;;;4978571;28;20192;-72
2023/07/30 08:47:25;;;;;;;3.65;1.63;;;19.80;99.90;;;;;;4978587;28;20211;-71
2023/07/30 08:49:55;;;;;;;5.18;1.58;;;19.80;99.90;;;;;;4978771;28;20176;-71
2023/07/30 08:52:25;;;;;;;5.03;1.60;;;19.90;99.90;;;;;;4978583;28;20224;-72
2023/07/30 08:54:55;;;;;;;3.65;1.67;;;19.90;99.90;;;;;;4978725;28;20291;-72
2023/07/30 08:57:25;;;;;;;5.43;1.50;;;19.90;99.90;;;;;;4978621;28;20273;-72
2023/07/30 09:00:00;;;;;;;4.60;1.90;;;19.90;99.90;;;;;;4979038;28;20179;-70
2023/07/30 09:02:58;;;;;;;6.32;1.60;;;19.90;99.90;;;;;;4978580;28;20205;-72
2023/07/30 09:05:25;;;;;;;4.00;1.67;;;19.90;99.90;;;;;;4957900;29;20189;-71
2023/07/30 09:07:50;;;;;;;4.15;1.55;;;20.00;99.90;;;;;;4959447;28;20208;-70
2023/07/30 09:10:16;;;;;;;5.70;1.77;;;20.00;99.90;;;;;;4959556;28;20269;-73
2023/07/30 09:12:42;;;;;;;5.97;2.10;;;20.10;99.90;;;;;;4959355;29;20318;-70
2023/07/30 09:15:08;;;;;;;5.97;2.00;;;20.10;99.90;;;;;;4959966;28;20179;-71
2023/07/30 09:17:34;;;;;;;6.38;2.00;;;20.20;99.90;;;;;;4978584;28;20182;-70
2023/07/30 09:20:03;;;;;;;5.57;2.10;;;20.30;99.90;;;;;;4978673;28;20176;-69
2023/07/30 09:22:41;;;;;;;4.50;1.80;;;20.50;99.90;;;;;;4978202;28;20264;-71
2023/07/30 09:25:08;;;;;;;5.88;1.85;;;20.60;99.90;;;;;;4979184;28;20183;-66
2023/07/30 09:27:35;;;;;;;4.70;1.70;;;20.60;99.90;;;;;;4978367;28;20211;-65
2023/07/30 09:30:05;;;;;;;4.72;1.67;;;20.70;99.90;;;;;;4978299;28;20176;-65
2023/07/30 09:32:33;;;;;;;4.45;1.33;;;20.80;99.90;;;;;;4977712;28;20216;-64
2023/07/30 09:35:08;;;;;;;5.35;1.77;;;20.80;99.90;;;;;;4978176;28;20184;-65
2023/07/30 09:37:39;;;;;;;4.82;1.45;;;20.90;99.90;;;;;;4978057;28;20186;-65
2023/07/30 09:40:13;;;;;;;5.00;1.58;;;21.00;99.90;;;;;;4978017;28;20204;-68
2023/07/30 09:42:42;;;;;;;4.80;1.50;;;21.10;99.90;;;;;;4977311;28;20175;-66
2023/07/30 09:45:16;;;;;;;3.78;1.20;;;21.20;99.90;;;;;;4977978;28;20204;-66
2023/07/30 09:47:47;;;;;;;3.63;1.33;;;21.40;99.90;;;;;;4977989;28;20195;-64
2023/07/30 09:50:15;;;;;;;6.18;1.58;;;21.50;99.90;;;;;;4976911;28;20298;-64
2023/07/30 09:52:43;;;;;;;4.18;1.70;;;21.60;99.90;;;;;;4977998;28;20176;-65
2023/07/30 09:55:12;;;;;;;3.35;1.60;;;21.60;99.90;;;;;;4977615;28;20196;-65
2023/07/30 09:57:38;;;;;;;3.65;1.35;;;21.60;99.90;;;;;;4977838;28;20195;-65
2023/07/30 10:00:11;;;;;;;4.03;1.50;;;21.50;99.90;;;;;;4977711;28;20258;-65
2023/07/30 10:02:43;;;;;;;6.65;1.58;;;21.50;99.90;;;;;;4977518;28;20210;-65
2023/07/30 10:05:16;;;;;;;4.90;1.52;;;21.50;99.90;;;;;;4977633;28;20196;-62
2023/07/30 10:07:49;;;;;;;4.18;1.50;;;21.50;99.90;;;;;;4958261;28;20216;-66
2023/07/30 10:10:14;;;;;;;5.40;1.58;;;21.50;99.90;;;;;;4958291;28;20208;-65
2023/07/30 10:12:43;;;;;;;4.63;1.38;;;21.50;99.90;;;;;;4958353;28;20173;-66
2023/07/30 10:15:09;;;;;;;4.15;1.40;;;21.50;99.90;;;;;;4957824;29;20177;-64
2023/07/30 10:17:35;;;;;;;5.75;1.35;;;21.50;99.90;;;;;;4957749;28;20200;-65
2023/07/30 10:20:21;;;;;;;3.72;1.38;;;21.50;99.90;;;;;;4957695;29;20179;-65
2023/07/30 10:22:52;;;;;;;3.35;1.42;;;21.60;99.90;;;;;;4962495;28;20488;-64
2023/07/30 10:25:21;;;;;;;4.20;1.42;;;21.70;99.90;;;;;;4977383;28;20245;-66
2023/07/30 10:27:52;;;;;;;2.53;1.02;;;21.70;99.90;;;;;;4976933;28;20212;-64
2023/07/30 10:30:19;;;;;;;3.20;1.55;;;21.80;99.90;;;;;;4977115;28;20173;-65
2023/07/30 10:33:04;;;;;;;2.53;1.00;;;22.00;99.90;;;;;;4977081;28;20179;-66
2023/07/30 10:35:41;;;;;;;4.18;1.38;;;22.20;99.90;;;;;;4976842;28;20184;-66
2023/07/30 10:38:24;;;;;;;4.25;1.33;;;22.30;99.90;;;;;;4976589;28;20184;-65
2023/07/30 10:41:04;;;;;;;5.68;1.70;;;22.30;99.90;;;;;;4976218;28;20184;-64
2023/07/30 10:43:49;;;;;;;4.47;1.10;;;22.30;99.90;;;;;;4976380;28;20176;-64
2023/07/30 10:46:16;;;;;;;6.13;1.55;;;22.30;99.90;;;;;;4976814;28;20180;-66
2023/07/30 10:48:44;;;;;;;3.65;1.40;;;22.40;99.90;;;;;;4976466;28;20226;-65
2023/07/30 10:51:16;;;;;;;3.80;1.50;;;22.50;99.90;;;;;;4976494;28;20183;-65
2023/07/30 10:53:47;;;;;;;4.47;1.55;;;22.60;99.90;;;;;;4975896;28;20258;-66
2023/07/30 10:56:20;;;;;;;2.55;1.20;;;22.60;99.90;;;;;;4976426;28;20172;-65
2023/07/30 10:59:08;;;;;;;5.22;1.58;;;22.70;99.90;;;;;;4976825;28;20168;-64
2023/07/30 11:02:00;;;;;;;3.83;1.30;;;22.70;99.90;;;;;;4976598;28;20219;-65
2023/07/30 11:04:33;;;;;;;4.40;1.30;;;22.80;99.90;;;;;;4972063;28;20188;-65
2023/07/30 11:07:03;;;;;;;3.53;1.23;;;23.00;99.90;;;;;;4976360;28;20179;-66
2023/07/30 11:09:28;;;;;;;4.28;1.35;;;23.20;99.90;;;;;;4977181;28;20172;-65
2023/07/30 11:11:55;;;;;;;4.78;1.50;;;23.30;99.90;;;;;;4976337;28;20211;-64
2023/07/30 11:14:27;;;;;;;4.10;1.30;;;23.40;99.90;;;;;;4975962;28;20204;-64
2023/07/30 11:17:01;;;;;;;3.35;1.92;;;23.50;99.90;;;;;;4976426;28;20168;-65
2023/07/30 11:19:29;;;;;;;1.98;1.15;;;23.50;99.90;;;;;;4975955;28;20198;-64
2023/07/30 11:21:58;;;;;;;3.88;1.30;;;23.60;99.90;;;;;;4976236;28;20246;-65
2023/07/30 11:24:38;;;;;;;4.38;1.23;;;23.60;99.90;;;;;;4975908;28;20207;-65
2023/07/30 11:27:04;;;;;;;3.35;1.20;;;23.70;99.90;;;;;;4976067;28;20175;-65
2023/07/30 11:29:30;;;;;;;4.30;1.20;;;23.70;99.90;;;;;;4975797;28;20278;-65
2023/07/30 11:31:58;;;;;;;2.88;1.08;;;23.70;99.90;;;;;;4975528;28;20184;-64
2023/07/30 11:34:35;;;;;;;2.42;0.90;;;23.80;99.90;;;;;;4975758;28;20207;-65
2023/07/30 11:37:01;;;;;;;5.07;1.35;;;23.80;99.90;;;;;;4976023;28;20188;-66
2023/07/30 11:39:32;;;;;;;2.20;1.08;;;23.80;99.90;;;;;;4975797;28;20274;-66
2023/07/30 11:42:00;;;;;;;3.67;1.20;;;23.70;99.90;;;;;;4975867;28;20176;-66
2023/07/30 11:44:40;;;;;;;2.35;1.02;;;23.60;99.90;;;;;;4975338;28;20192;-66
2023/07/30 11:47:07;;;;;;;2.75;0.98;;;23.60;99.90;;;;;;4975527;28;20203;-65
2023/07/30 11:49:32;;;;;;;2.03;1.10;;;23.60;99.90;;;;;;4975555;28;20250;-65
2023/07/30 11:52:10;;;;;;;2.33;1.13;;;23.60;99.90;;;;;;4975740;28;20176;-65
2023/07/30 11:54:37;;;;;;;2.30;0.80;;;23.60;99.90;;;;;;4975337;28;20186;-65
2023/07/30 11:57:07;;;;;;;3.25;1.10;;;23.60;99.90;;;;;;4975891;28;20314;-65
2023/07/30 11:59:33;;;;;;;2.15;0.80;;;23.50;99.90;;;;;;4975684;28;20176;-65
2023/07/30 12:02:02;;;;;;;2.13;1.27;;;23.50;99.90;;;;;;4975614;28;20178;-65
2023/07/30 12:04:42;;;;;;;2.38;0.98;;;23.50;99.90;;;;;;4974688;28;20176;-67
2023/07/30 12:07:10;;;;;;;4.10;1.30;;;23.50;99.90;;;;;;4975166;28;20195;-64
2023/07/30 12:09:39;;;;;;;2.35;0.82;;;23.60;99.90;;;;;;4975543;28;20183;-65
2023/07/30 12:12:05;;;;;;;2.75;0.90;;;23.60;99.90;;;;;;4975155;28;20171;-65
2023/07/30 12:14:43;;;;;;;2.17;0.80;;;23.60;99.90;;;;;;4974956;28;20259;-65
2023/07/30 12:17:13;;;;;;;2.28;1.30;;;23.60;99.90;;;;;;4975354;28;20271;-65
2023/07/30 12:19:40;;;;;;;2.17;0.90;;;23.70;99.90;;;;;;4974780;28;20172;-64
2023/07/30 12:22:08;;;;;;;2.70;0.95;;;23.70;99.90;;;;;;4975239;28;20207;-63
2023/07/30 12:24:34;;;;;;;2.35;0.88;;;23.80;99.90;;;;;;4975425;28;20187;-67
2023/07/30 12:27:00;;;;;;;1.38;0.75;;;23.90;99.90;;;;;;4975323;28;20212;-66
2023/07/30 12:29:30;;;;;;;2.58;1.15;;;24.00;99.90;;;;;;4975131;28;20180;-65
2023/07/30 12:31:56;;;;;;;3.47;1.63;;;24.10;99.90;;;;;;4975115;28;20188;-64
2023/07/30 12:34:23;;;;;;;4.15;1.40;;;24.10;99.90;;;;;;4975526;28;20168;-65
2023/07/30 12:36:48;;;;;;;4.63;1.10;;;24.00;99.90;;;;;;4974765;28;20206;-64
2023/07/30 12:39:16;;;;;;;3.45;1.17;;;23.90;99.90;;;;;;4975306;28;20181;-65
2023/07/30 12:41:42;;;;;;;3.30;0.93;;;23.90;99.90;;;;;;4975376;28;20176;-64
2023/07/30 12:44:09;;;;;;;2.38;1.02;;;23.90;99.90;;;;;;4994099;28;20414;-65
2023/07/30 12:46:35;;;;;;;3.05;1.17;;;23.90;99.90;;;;;;4994553;28;20171;-64
2023/07/30 12:49:03;;;;;;;3.30;1.00;;;24.00;99.90;;;;;;4978537;28;20208;-65
2023/07/30 12:51:34;;;;;;;2.90;0.98;;;24.00;99.90;;;;;;4974621;28;20172;-65